Time;durP1;ratioP1;P1;durP2;ratioP2;P2;SDS_P1;SDS_P2;PMS_P1;PMS_P2;Temp;Humidity;BMP_temperature;BMP_pressure;BME280_temperature;BME280_humidity;BME280_pressure;Samples;Min_cycle;Max_cycle;Signal;HPM_P1;HPM_P2
2020/12/18 00:00:22;;;;;;;8.35;2.40;;;7.70;92.00;;;;;;5040065;28;20455;-84
2020/12/18 00:02:48;;;;;;;9.82;2.58;;;7.70;92.00;;;;;;5035577;28;20494;-84
2020/12/18 00:05:13;;;;;;;6.47;2.05;;;7.60;92.00;;;;;;5015191;28;20025;-84
2020/12/18 00:07:39;;;;;;;11.15;2.20;;;7.60;92.10;;;;;;5026630;28;20036;-84
2020/12/18 00:10:04;;;;;;;6.10;1.77;;;7.60;92.10;;;;;;5016375;28;20032;-84
2020/12/18 00:12:30;;;;;;;5.85;2.00;;;7.70;92.00;;;;;;5015718;28;20024;-85
2020/12/18 00:14:55;;;;;;;3.70;1.75;;;7.60;92.10;;;;;;5030792;28;20129;-81
2020/12/18 00:17:21;;;;;;;10.02;2.10;;;7.70;92.00;;;;;;5044619;28;20112;-82
2020/12/18 00:19:46;;;;;;;4.13;1.58;;;7.70;92.00;;;;;;5022508;28;20490;-81
2020/12/18 00:22:12;;;;;;;8.90;2.08;;;7.60;92.10;;;;;;5016249;28;20036;-84
2020/12/18 00:24:38;;;;;;;7.90;1.90;;;7.60;92.20;;;;;;5033205;28;20033;-83
2020/12/18 00:27:03;;;;;;;11.50;2.38;;;7.60;92.10;;;;;;5033493;28;20034;-84
2020/12/18 00:29:29;;;;;;;5.32;2.25;;;7.60;92.10;;;;;;5018597;28;20387;-83
2020/12/18 00:31:54;;;;;;;4.22;1.60;;;7.70;92.00;;;;;;5029742;28;20035;-84
2020/12/18 00:34:20;;;;;;;7.20;1.95;;;7.60;92.00;;;;;;5017456;28;20065;-83
2020/12/18 00:36:52;;;;;;;4.47;1.95;;;7.70;92.10;;;;;;5030626;28;20037;-82
2020/12/18 00:39:17;;;;;;;4.93;1.92;;;7.70;92.10;;;;;;5059890;28;20567;-84
2020/12/18 00:41:43;;;;;;;5.50;2.55;;;7.70;92.00;;;;;;5029154;28;20119;-84
2020/12/18 00:44:08;;;;;;;9.43;2.38;;;7.70;92.00;;;;;;5047566;28;20040;-82
2020/12/18 00:46:34;;;;;;;5.78;2.33;;;7.60;92.10;;;;;;5048146;28;20043;-84
2020/12/18 00:49:00;;;;;;;7.63;2.80;;;7.60;92.20;;;;;;5051856;28;20037;-85
2020/12/18 00:51:25;;;;;;;5.22;1.55;;;7.60;92.10;;;;;;5020264;28;20040;-85
2020/12/18 00:53:51;;;;;;;6.95;1.58;;;7.60;92.20;;;;;;5045488;28;20032;-84
2020/12/18 00:56:16;;;;;;;4.55;2.17;;;7.60;92.10;;;;;;5015260;28;20024;-80
2020/12/18 00:58:45;;;;;;;6.25;1.90;;;7.70;92.00;;;;;;5045416;28;20249;-85
2020/12/18 01:01:10;;;;;;;6.60;2.22;;;7.60;92.20;;;;;;5025678;28;20652;-84
2020/12/18 01:03:36;;;;;;;5.40;1.63;;;7.60;92.10;;;;;;5028612;28;20117;-85
2020/12/18 01:06:19;;;;;;;5.60;2.33;;;7.60;92.10;;;;;;5047260;28;20040;-83
2020/12/18 01:08:45;;;;;;;4.00;1.88;;;7.60;92.10;;;;;;5027344;28;20403;-84
2020/12/18 01:11:10;;;;;;;4.40;1.70;;;7.60;92.00;;;;;;5056479;28;20414;-83
2020/12/18 01:13:36;;;;;;;4.75;1.65;;;7.60;92.00;;;;;;5041015;28;20119;-83
2020/12/18 01:16:01;;;;;;;6.43;2.33;;;7.60;92.10;;;;;;5016351;28;20039;-84
2020/12/18 01:18:27;;;;;;;5.22;2.30;;;7.50;92.00;;;;;;5049394;28;20036;-83
2020/12/18 01:20:53;;;;;;;5.60;1.85;;;7.50;92.20;;;;;;5028624;28;20025;-85
2020/12/18 01:23:19;;;;;;;5.53;2.03;;;7.40;92.20;;;;;;5018844;28;20040;-85
2020/12/18 01:25:44;;;;;;;3.28;1.70;;;7.40;92.20;;;;;;5042553;28;20506;-83
2020/12/18 01:28:10;;;;;;;3.80;1.80;;;7.40;92.30;;;;;;5029382;28;20066;-84
2020/12/18 01:30:36;;;;;;;4.63;2.08;;;7.50;92.20;;;;;;5027662;28;20088;-84
2020/12/18 01:33:01;;;;;;;5.03;2.08;;;7.40;92.20;;;;;;5011498;28;20560;-83
2020/12/18 01:35:27;;;;;;;5.05;2.10;;;7.30;92.30;;;;;;5029627;28;20024;-84
2020/12/18 01:37:53;;;;;;;3.33;1.75;;;7.40;92.20;;;;;;5055740;28;20043;-84
2020/12/18 01:40:18;;;;;;;9.85;1.80;;;7.30;92.40;;;;;;5040941;28;20025;-84
2020/12/18 01:42:44;;;;;;;3.55;1.65;;;7.20;92.40;;;;;;5041557;28;20036;-84
2020/12/18 01:45:09;;;;;;;6.72;2.25;;;7.20;92.30;;;;;;5037351;28;20032;-85
2020/12/18 01:47:35;;;;;;;4.40;1.98;;;7.20;92.20;;;;;;5044988;28;20392;-85
2020/12/18 01:50:00;;;;;;;3.75;1.48;;;7.20;92.40;;;;;;5016857;28;20499;-84
2020/12/18 01:52:26;;;;;;;6.85;2.15;;;7.20;92.40;;;;;;5015272;28;20029;-83
2020/12/18 01:54:52;;;;;;;7.18;1.73;;;7.20;92.30;;;;;;5028816;28;20036;-84
2020/12/18 01:57:18;;;;;;;7.07;2.15;;;7.20;92.50;;;;;;5043331;28;20116;-79
2020/12/18 01:59:43;;;;;;;5.13;1.85;;;7.10;92.40;;;;;;5045457;28;20123;-85
2020/12/18 02:02:09;;;;;;;5.47;1.98;;;7.10;92.60;;;;;;5041231;28;20028;-85
2020/12/18 02:04:35;;;;;;;8.23;1.95;;;7.10;92.50;;;;;;5047178;28;20414;-83
2020/12/18 02:07:01;;;;;;;5.55;1.60;;;7.10;92.50;;;;;;5036969;28;20380;-83
2020/12/18 02:09:26;;;;;;;8.57;2.15;;;7.10;92.50;;;;;;5021597;28;20029;-83
2020/12/18 02:11:52;;;;;;;4.32;1.58;;;7.10;92.40;;;;;;5039957;28;20029;-84
2020/12/18 02:14:17;;;;;;;6.80;1.70;;;7.00;92.50;;;;;;5059319;28;20032;-84
2020/12/18 02:16:43;;;;;;;4.65;1.95;;;7.00;92.50;;;;;;5045820;28;20039;-86
2020/12/18 02:19:10;;;;;;;6.00;1.60;;;7.00;92.60;;;;;;5029300;28;20032;-84
2020/12/18 02:21:36;;;;;;;3.42;1.58;;;6.90;92.60;;;;;;5027943;28;20031;-84
2020/12/18 02:24:02;;;;;;;3.67;1.60;;;7.00;92.70;;;;;;5031739;28;20600;-84
2020/12/18 02:26:27;;;;;;;4.03;1.63;;;7.10;92.50;;;;;;5030784;28;20028;-84
2020/12/18 02:28:53;;;;;;;5.53;1.50;;;7.00;92.50;;;;;;5046451;28;20032;-83
2020/12/18 02:31:18;;;;;;;6.88;1.98;;;7.00;92.50;;;;;;5052330;28;20078;-85
2020/12/18 02:33:44;;;;;;;1.88;1.40;;;7.00;92.60;;;;;;5044371;28;20036;-83
2020/12/18 02:36:09;;;;;;;4.00;1.42;;;7.00;92.60;;;;;;5038701;28;20036;-85
2020/12/18 02:38:35;;;;;;;5.93;1.92;;;7.00;92.50;;;;;;5029212;28;20411;-84
2020/12/18 02:41:01;;;;;;;5.18;2.25;;;7.00;92.50;;;;;;5012893;28;20397;-84
2020/12/18 02:43:26;;;;;;;8.63;2.10;;;7.00;92.50;;;;;;5017698;28;20098;-85
2020/12/18 02:45:52;;;;;;;1.77;1.50;;;7.00;92.60;;;;;;5042112;28;20028;-84
2020/12/18 02:48:17;;;;;;;14.82;2.53;;;6.90;92.40;;;;;;5019759;28;20104;-83
2020/12/18 02:50:43;;;;;;;4.10;1.73;;;6.90;92.60;;;;;;5028293;28;20036;-85
2020/12/18 02:53:18;;;;;;;4.72;1.50;;;6.80;92.70;;;;;;5028954;28;20214;-84
2020/12/18 02:55:44;;;;;;;3.70;1.30;;;6.80;92.70;;;;;;5034585;28;20024;-85
2020/12/18 02:58:10;;;;;;;4.32;1.38;;;6.80;92.70;;;;;;5041464;28;20038;-85
2020/12/18 03:00:36;;;;;;;3.78;1.48;;;6.70;92.60;;;;;;5027176;28;20111;-84
2020/12/18 03:03:05;;;;;;;4.75;1.73;;;6.70;92.80;;;;;;5013505;28;20125;-85
2020/12/18 03:05:31;;;;;;;5.88;1.77;;;6.70;92.60;;;;;;5048541;28;20028;-85
2020/12/18 03:07:56;;;;;;;4.22;1.45;;;6.60;92.70;;;;;;5018113;28;20039;-83
2020/12/18 03:10:22;;;;;;;3.63;1.73;;;6.70;92.70;;;;;;5032295;28;20024;-83
2020/12/18 03:12:48;;;;;;;6.32;1.83;;;6.60;92.80;;;;;;5028390;28;20393;-85
2020/12/18 03:15:13;;;;;;;5.72;2.03;;;6.60;92.80;;;;;;5007625;28;20036;-82
2020/12/18 03:17:39;;;;;;;2.83;1.60;;;6.60;92.80;;;;;;5026305;28;20024;-83
2020/12/18 03:20:05;;;;;;;4.93;1.63;;;6.50;92.70;;;;;;5029589;28;20047;-84
2020/12/18 03:22:31;;;;;;;2.75;1.52;;;6.50;92.90;;;;;;5011556;28;20024;-80
2020/12/18 03:24:57;;;;;;;3.20;1.42;;;6.70;92.80;;;;;;5029564;28;20037;-85
2020/12/18 03:27:23;;;;;;;6.35;1.83;;;6.60;92.80;;;;;;5014391;28;20044;-84
2020/12/18 03:29:48;;;;;;;4.07;1.67;;;6.60;92.80;;;;;;5041820;28;20399;-84
2020/12/18 03:32:14;;;;;;;4.57;1.75;;;6.50;92.70;;;;;;5027733;28;20499;-84
2020/12/18 03:34:39;;;;;;;3.25;2.05;;;6.50;92.80;;;;;;5027797;28;24531;-82
2020/12/18 03:37:05;;;;;;;3.63;1.80;;;6.60;93.10;;;;;;5035273;28;20043;-84
2020/12/18 03:39:30;;;;;;;6.20;1.90;;;6.50;92.80;;;;;;5023435;28;20038;-82
2020/12/18 03:41:56;;;;;;;3.67;1.77;;;6.50;93.00;;;;;;5023680;28;20025;-85
2020/12/18 03:44:21;;;;;;;2.75;1.60;;;6.40;92.90;;;;;;5064111;28;20040;-82
2020/12/18 03:46:47;;;;;;;3.28;1.45;;;6.50;92.90;;;;;;5056037;28;20372;-81
2020/12/18 03:49:12;;;;;;;4.35;1.27;;;6.50;92.80;;;;;;5019348;28;20028;-84
2020/12/18 03:51:38;;;;;;;3.80;1.63;;;6.50;92.80;;;;;;5047464;28;20035;-85
2020/12/18 03:54:04;;;;;;;3.70;1.60;;;6.50;92.80;;;;;;5027392;28;20040;-84
2020/12/18 03:56:29;;;;;;;3.67;1.83;;;6.60;92.80;;;;;;5013125;28;20082;-83
2020/12/18 03:58:55;;;;;;;4.65;1.75;;;6.60;92.80;;;;;;5025489;28;20112;-86
2020/12/18 04:01:20;;;;;;;2.63;1.40;;;6.50;92.60;;;;;;5017167;28;20024;-82
2020/12/18 04:03:46;;;;;;;3.85;1.60;;;6.60;92.80;;;;;;5014095;28;20082;-85
2020/12/18 04:06:11;;;;;;;3.85;1.33;;;6.50;92.80;;;;;;5031648;28;20036;-84
2020/12/18 04:08:37;;;;;;;2.05;1.50;;;6.50;92.80;;;;;;5028839;28;20024;-85
2020/12/18 04:11:02;;;;;;;4.82;1.60;;;6.40;92.80;;;;;;5016130;28;20368;-84
2020/12/18 04:13:28;;;;;;;5.38;1.55;;;6.50;92.90;;;;;;5037430;28;20032;-82
2020/12/18 04:15:53;;;;;;;2.88;1.48;;;6.50;92.80;;;;;;5039049;28;20036;-82
2020/12/18 04:18:19;;;;;;;1.92;1.15;;;6.40;92.70;;;;;;5029128;28;20032;-83
2020/12/18 04:20:44;;;;;;;8.65;1.60;;;6.50;92.80;;;;;;5031647;28;20039;-85
2020/12/18 04:23:10;;;;;;;6.68;2.30;;;6.40;92.70;;;;;;5024743;28;20140;-84
2020/12/18 04:25:35;;;;;;;3.60;1.92;;;6.30;92.70;;;;;;5039511;28;20051;-81
2020/12/18 04:28:01;;;;;;;4.63;1.25;;;6.30;92.90;;;;;;5049494;28;20025;-86
2020/12/18 04:30:26;;;;;;;4.90;1.85;;;6.30;92.90;;;;;;5041160;28;20101;-84
2020/12/18 04:32:52;;;;;;;4.15;1.55;;;6.20;92.90;;;;;;5060356;28;20028;-80
2020/12/18 04:35:17;;;;;;;3.22;1.75;;;6.20;93.00;;;;;;5049708;28;20443;-86
2020/12/18 04:37:43;;;;;;;6.00;1.83;;;6.20;93.10;;;;;;5038447;28;20033;-85
2020/12/18 04:40:08;;;;;;;3.03;1.60;;;6.30;93.00;;;;;;5030125;28;20380;-82
2020/12/18 04:42:34;;;;;;;7.22;2.10;;;6.40;92.90;;;;;;5036768;28;20029;-86
2020/12/18 04:45:03;;;;;;;3.95;1.58;;;6.30;92.90;;;;;;5021931;28;20059;-83
2020/12/18 04:47:29;;;;;;;5.38;1.70;;;6.20;93.00;;;;;;5012356;28;20546;-83
2020/12/18 04:49:55;;;;;;;7.65;1.50;;;6.40;93.00;;;;;;5010049;28;20032;-82
2020/12/18 04:52:22;;;;;;;5.18;2.03;;;6.30;93.00;;;;;;5055640;28;20036;-81
2020/12/18 04:54:48;;;;;;;6.22;2.00;;;6.30;93.00;;;;;;5023530;28;20033;-83
2020/12/18 04:57:16;;;;;;;5.97;1.50;;;6.40;93.00;;;;;;5038101;28;20063;-84
2020/12/18 04:59:42;;;;;;;10.73;1.92;;;6.30;92.90;;;;;;5022909;28;20036;-85
2020/12/18 05:02:08;;;;;;;5.57;1.88;;;6.30;92.90;;;;;;5037828;28;20037;-83
2020/12/18 05:04:34;;;;;;;5.22;1.98;;;6.30;92.90;;;;;;5036575;28;20120;-84
2020/12/18 05:06:59;;;;;;;7.30;1.80;;;6.20;93.00;;;;;;5041471;28;20029;-84
2020/12/18 05:09:25;;;;;;;5.30;2.13;;;6.20;93.10;;;;;;5036204;28;20040;-83
2020/12/18 05:11:51;;;;;;;9.88;1.92;;;6.20;93.20;;;;;;5032926;28;20056;-85
2020/12/18 05:14:17;;;;;;;1.80;1.25;;;6.20;93.20;;;;;;5062221;28;20032;-83
2020/12/18 05:16:43;;;;;;;4.30;1.55;;;6.10;93.10;;;;;;5012271;28;20432;-85
2020/12/18 05:19:10;;;;;;;14.55;2.58;;;6.20;93.20;;;;;;5035492;28;20036;-87
2020/12/18 05:21:38;;;;;;;7.25;2.13;;;6.10;93.20;;;;;;5052105;28;20025;-86
2020/12/18 05:24:05;;;;;;;8.00;2.20;;;6.10;93.30;;;;;;5033716;28;20081;-83
2020/12/18 05:26:32;;;;;;;3.70;1.88;;;6.10;93.20;;;;;;5019481;28;20067;-80
2020/12/18 05:29:07;;;;;;;7.60;2.08;;;6.10;93.20;;;;;;5029959;28;20117;-85
2020/12/18 05:31:33;;;;;;;4.13;1.88;;;6.20;93.20;;;;;;5058990;28;20040;-85
2020/12/18 05:34:02;;;;;;;5.90;2.08;;;6.20;93.10;;;;;;5028154;28;20037;-86
2020/12/18 05:36:28;;;;;;;6.93;1.90;;;6.20;93.10;;;;;;5040278;28;20183;-83
2020/12/18 05:38:53;;;;;;;8.10;1.83;;;6.10;93.00;;;;;;5026152;28;20457;-83
2020/12/18 05:41:23;;;;;;;6.15;1.90;;;6.10;93.20;;;;;;5036970;28;20043;-85
2020/12/18 05:43:49;;;;;;;6.45;2.00;;;6.20;93.20;;;;;;5042167;28;20032;-86
2020/12/18 05:46:19;;;;;;;4.85;1.65;;;6.20;93.10;;;;;;5031440;28;20036;-85
2020/12/18 05:48:51;;;;;;;4.22;1.88;;;6.10;93.10;;;;;;5027477;28;20040;-82
2020/12/18 05:51:40;;;;;;;4.55;1.90;;;6.20;93.20;;;;;;5045673;28;20044;-86
2020/12/18 05:54:19;;;;;;;6.90;1.80;;;6.10;93.20;;;;;;5036851;28;20040;-86
2020/12/18 05:56:53;;;;;;;2.35;1.73;;;6.10;93.20;;;;;;5047834;28;20032;-86
2020/12/18 05:59:19;;;;;;;3.67;1.85;;;6.10;93.20;;;;;;5027308;28;20040;-82
2020/12/18 06:01:54;;;;;;;6.30;1.70;;;6.20;93.10;;;;;;5024104;28;20094;-83
2020/12/18 06:04:22;;;;;;;6.97;2.42;;;6.10;93.10;;;;;;5025348;28;20025;-87
2020/12/18 06:06:49;;;;;;;3.92;1.65;;;6.10;93.10;;;;;;5039767;28;20024;-86
2020/12/18 06:09:19;;;;;;;6.38;1.83;;;6.10;93.10;;;;;;5040264;28;20041;-85
2020/12/18 06:11:45;;;;;;;5.00;2.08;;;6.20;93.00;;;;;;5027124;28;20051;-83
2020/12/18 06:14:12;;;;;;;3.83;1.42;;;6.10;93.20;;;;;;5017472;28;20091;-86
2020/12/18 06:16:51;;;;;;;4.28;1.42;;;6.10;93.20;;;;;;5012246;28;20048;-86
2020/12/18 06:19:18;;;;;;;7.53;1.48;;;6.00;93.20;;;;;;5028498;28;20416;-86
2020/12/18 06:21:54;;;;;;;3.63;1.73;;;6.00;93.30;;;;;;5042057;28;20032;-85
2020/12/18 06:24:20;;;;;;;5.35;1.88;;;6.00;93.40;;;;;;5014407;28;20558;-86
2020/12/18 06:26:46;;;;;;;6.28;2.05;;;6.10;93.30;;;;;;5024450;28;20116;-86
2020/12/18 06:29:20;;;;;;;8.15;2.13;;;6.00;93.30;;;;;;5012457;28;20064;-85
2020/12/18 06:31:45;;;;;;;4.07;1.83;;;6.10;93.30;;;;;;5037075;28;20103;-82
2020/12/18 06:34:22;;;;;;;4.97;1.48;;;6.10;93.40;;;;;;5023197;28;20035;-85
2020/12/18 06:36:47;;;;;;;5.47;1.80;;;6.20;93.30;;;;;;5039405;28;20039;-84
2020/12/18 06:39:25;;;;;;;3.22;1.42;;;6.10;93.30;;;;;;5055615;28;20467;-85
2020/12/18 06:42:09;;;;;;;6.28;1.50;;;6.00;93.40;;;;;;5054736;28;20484;-86
2020/12/18 06:44:36;;;;;;;5.93;2.05;;;6.10;93.30;;;;;;5027744;28;20035;-85
2020/12/18 06:47:15;;;;;;;7.85;1.83;;;6.00;93.30;;;;;;5040398;28;20021;-85
2020/12/18 06:50:05;;;;;;;7.53;2.40;;;6.10;93.40;;;;;;5020742;28;20029;-82
2020/12/18 06:52:50;;;;;;;6.80;2.75;;;6.00;93.40;;;;;;5046082;28;20086;-85
2020/12/18 06:55:24;;;;;;;4.65;1.70;;;6.10;93.30;;;;;;5033829;28;20042;-84
2020/12/18 06:58:08;;;;;;;5.45;1.63;;;6.00;93.30;;;;;;5028358;28;20037;-80
2020/12/18 07:00:44;;;;;;;2.53;1.38;;;6.00;93.40;;;;;;5072656;28;20653;-85
2020/12/18 07:03:11;;;;;;;5.45;2.13;;;6.00;93.40;;;;;;5052429;28;20073;-81
2020/12/18 07:05:40;;;;;;;2.70;1.30;;;6.10;93.70;;;;;;5025568;28;20509;-82
2020/12/18 07:08:10;;;;;;;6.55;2.22;;;6.00;93.40;;;;;;5043057;28;20029;-85
2020/12/18 07:10:45;;;;;;;3.60;1.50;;;6.00;93.60;;;;;;5026680;28;20552;-84
2020/12/18 07:13:15;;;;;;;4.78;1.52;;;6.00;93.40;;;;;;5026607;28;20012;-80
2020/12/18 07:15:44;;;;;;;3.55;1.15;;;6.00;93.50;;;;;;5031328;28;20034;-83
2020/12/18 07:18:19;;;;;;;5.88;1.70;;;6.00;93.50;;;;;;5045241;28;20043;-84
2020/12/18 07:20:55;;;;;;;4.95;1.63;;;6.00;93.40;;;;;;5036788;28;20471;-83
2020/12/18 07:23:22;;;;;;;7.05;1.92;;;5.90;93.60;;;;;;5028836;28;20032;-82
2020/12/18 07:25:48;;;;;;;6.03;2.33;;;6.00;93.50;;;;;;5034324;28;20506;-84
2020/12/18 07:28:14;;;;;;;4.13;1.70;;;6.10;93.60;;;;;;5007502;28;20412;-83
2020/12/18 07:30:40;;;;;;;4.38;1.70;;;5.90;93.50;;;;;;5027407;28;20158;-85
2020/12/18 07:33:08;;;;;;;7.35;2.78;;;6.00;93.60;;;;;;5021688;28;20040;-84
2020/12/18 07:35:49;;;;;;;4.45;2.00;;;6.00;93.50;;;;;;5024521;28;20482;-84
2020/12/18 07:38:34;;;;;;;7.10;1.50;;;6.10;93.40;;;;;;5025830;28;20107;-83
2020/12/18 07:41:10;;;;;;;3.20;1.50;;;6.10;93.40;;;;;;5040668;28;20123;-83
2020/12/18 07:43:37;;;;;;;6.38;1.55;;;6.00;93.30;;;;;;5014702;28;20048;-83
2020/12/18 07:46:06;;;;;;;6.18;1.65;;;6.10;93.40;;;;;;5010373;28;20071;-84
2020/12/18 07:48:33;;;;;;;4.45;1.90;;;6.10;93.40;;;;;;5029005;28;20034;-85
2020/12/18 07:51:01;;;;;;;14.23;2.17;;;6.00;93.30;;;;;;5006148;28;20395;-84
2020/12/18 07:53:28;;;;;;;8.45;2.10;;;6.00;93.70;;;;;;5041910;28;20025;-79
2020/12/18 07:56:04;;;;;;;9.85;2.33;;;6.10;93.60;;;;;;5029129;28;20052;-84
2020/12/18 07:58:30;;;;;;;7.30;1.83;;;6.10;93.70;;;;;;5048736;28;20490;-83
2020/12/18 08:01:10;;;;;;;4.70;1.98;;;6.00;93.70;;;;;;5025544;28;20033;-85
2020/12/18 08:03:37;;;;;;;6.15;1.83;;;6.20;93.60;;;;;;5035825;28;20036;-84
2020/12/18 08:06:04;;;;;;;7.88;2.53;;;6.20;93.60;;;;;;5012321;28;20041;-83
2020/12/18 08:08:31;;;;;;;5.45;1.73;;;6.20;93.80;;;;;;5014470;28;20078;-84
2020/12/18 08:11:00;;;;;;;4.53;1.60;;;6.30;93.70;;;;;;5013622;28;20087;-84
2020/12/18 08:13:28;;;;;;;8.38;2.08;;;6.40;93.60;;;;;;5022322;28;20020;-84
2020/12/18 08:16:10;;;;;;;7.10;2.20;;;6.50;93.70;;;;;;5026542;28;20036;-84
2020/12/18 08:18:36;;;;;;;10.38;2.20;;;6.40;93.50;;;;;;5023524;28;20109;-85
2020/12/18 08:21:02;;;;;;;5.45;1.42;;;6.50;93.70;;;;;;5000514;28;20512;-84
2020/12/18 08:23:27;;;;;;;2.63;1.48;;;6.50;93.80;;;;;;5040102;28;20028;-82
2020/12/18 08:25:53;;;;;;;9.15;2.25;;;6.70;93.50;;;;;;5012525;28;20466;-86
2020/12/18 08:28:19;;;;;;;4.85;1.73;;;6.70;93.60;;;;;;5011058;28;20037;-83
2020/12/18 08:30:45;;;;;;;4.18;1.95;;;6.90;93.40;;;;;;5042315;28;20024;-85
2020/12/18 08:33:11;;;;;;;4.25;1.98;;;6.90;93.30;;;;;;5024945;28;20380;-84
2020/12/18 08:35:37;;;;;;;2.88;1.48;;;6.90;93.60;;;;;;5025657;28;20099;-85
2020/12/18 08:38:11;;;;;;;5.28;1.30;;;7.10;93.40;;;;;;5008972;28;20117;-85
2020/12/18 08:40:42;;;;;;;2.17;1.40;;;7.20;93.40;;;;;;5027476;28;20086;-85
2020/12/18 08:43:09;;;;;;;6.97;1.63;;;7.30;93.30;;;;;;5042576;28;20530;-85
2020/12/18 08:45:41;;;;;;;5.78;1.40;;;7.30;93.20;;;;;;5018632;28;20036;-85
2020/12/18 08:48:07;;;;;;;7.72;1.58;;;7.60;93.20;;;;;;5013892;28;20028;-85
2020/12/18 08:50:33;;;;;;;4.93;1.65;;;7.60;92.80;;;;;;5043499;28;20077;-84
2020/12/18 08:53:08;;;;;;;7.13;2.03;;;7.60;93.10;;;;;;5035101;28;20119;-81
2020/12/18 08:55:33;;;;;;;4.78;1.40;;;7.40;93.30;;;;;;5020343;28;20032;-83
2020/12/18 08:58:05;;;;;;;4.85;1.27;;;7.70;93.00;;;;;;5013253;28;20041;-81
2020/12/18 09:00:31;;;;;;;4.60;0.98;;;7.80;92.70;;;;;;5016351;28;20483;-83
2020/12/18 09:02:57;;;;;;;5.13;1.60;;;7.80;92.40;;;;;;5024542;28;20205;-84
2020/12/18 09:05:29;;;;;;;1.67;0.98;;;7.90;92.20;;;;;;5024548;28;20116;-83
2020/12/18 09:08:02;;;;;;;2.70;1.42;;;8.10;92.40;;;;;;5056689;28;20025;-84
2020/12/18 09:10:51;;;;;;;8.15;1.80;;;8.10;92.20;;;;;;5022162;28;20036;-82
2020/12/18 09:13:36;;;;;;;4.38;1.30;;;8.10;92.30;;;;;;5036087;28;20028;-85
2020/12/18 09:16:02;;;;;;;6.10;1.57;;;8.10;92.10;;;;;;5015418;28;20029;-83
2020/12/18 09:18:31;;;;;;;4.72;1.48;;;8.30;91.90;;;;;;5046543;28;20037;-83
2020/12/18 09:21:16;;;;;;;2.38;1.40;;;8.30;91.90;;;;;;5028900;28;20037;-85
2020/12/18 09:23:42;;;;;;;3.40;1.50;;;8.40;91.50;;;;;;5036997;28;20032;-84
2020/12/18 09:26:07;;;;;;;5.38;1.55;;;8.50;91.90;;;;;;5037050;28;20032;-84
2020/12/18 09:28:41;;;;;;;3.85;1.52;;;8.50;91.70;;;;;;5021505;28;20391;-82
2020/12/18 09:31:07;;;;;;;5.80;1.67;;;8.60;91.30;;;;;;5017138;28;20036;-82
2020/12/18 09:33:36;;;;;;;5.35;1.48;;;8.40;91.60;;;;;;5029248;28;20081;-83
2020/12/18 09:36:09;;;;;;;3.92;1.45;;;8.60;91.60;;;;;;5010681;28;20499;-83
2020/12/18 09:38:38;;;;;;;3.13;1.52;;;8.70;91.10;;;;;;5029426;28;20020;-83
2020/12/18 09:41:06;;;;;;;5.70;2.70;;;8.70;91.40;;;;;;5059110;28;20115;-83
2020/12/18 09:43:32;;;;;;;7.13;1.83;;;8.70;91.40;;;;;;5013809;28;20031;-83
2020/12/18 09:45:57;;;;;;;8.43;1.60;;;8.70;91.50;;;;;;5027792;28;20374;-83
2020/12/18 09:48:23;;;;;;;4.15;1.30;;;8.80;91.00;;;;;;5021397;28;20132;-83
2020/12/18 09:50:55;;;;;;;2.53;1.88;;;8.80;91.10;;;;;;5025032;28;20036;-83
2020/12/18 09:53:23;;;;;;;7.32;1.38;;;8.90;91.30;;;;;;5018298;28;24871;-83
2020/12/18 09:55:49;;;;;;;4.75;1.40;;;9.00;91.10;;;;;;5009447;28;20024;-83
2020/12/18 09:58:15;;;;;;;5.47;1.55;;;9.10;90.70;;;;;;5025614;28;20029;-84
2020/12/18 10:00:40;;;;;;;5.75;1.58;;;9.10;90.70;;;;;;5042373;28;20564;-85
2020/12/18 10:03:06;;;;;;;5.07;1.50;;;9.10;90.70;;;;;;5010702;28;20054;-84
2020/12/18 10:05:31;;;;;;;5.47;1.63;;;9.10;90.80;;;;;;5029891;28;20368;-84
2020/12/18 10:07:58;;;;;;;10.45;2.47;;;9.40;90.80;;;;;;5025927;28;20617;-84
2020/12/18 10:10:26;;;;;;;9.98;1.67;;;9.40;90.40;;;;;;5047587;28;20052;-83
2020/12/18 10:12:52;;;;;;;3.30;1.33;;;9.40;90.60;;;;;;5025556;28;20109;-84
2020/12/18 10:15:18;;;;;;;6.22;1.90;;;9.80;90.50;;;;;;5024673;28;20032;-83
2020/12/18 10:17:43;;;;;;;3.78;2.08;;;10.00;87.90;;;;;;5021554;28;20082;-83
2020/12/18 10:20:09;;;;;;;2.50;1.17;;;9.90;89.30;;;;;;5039483;28;20043;-83
2020/12/18 10:22:34;;;;;;;3.95;1.33;;;9.80;90.20;;;;;;5027080;28;20036;-82
2020/12/18 10:25:00;;;;;;;4.97;1.50;;;9.80;90.20;;;;;;5034615;28;20164;-83
2020/12/18 10:27:25;;;;;;;6.82;1.20;;;9.90;90.20;;;;;;5026261;28;20520;-80
2020/12/18 10:29:54;;;;;;;3.58;1.08;;;10.40;88.90;;;;;;5040812;28;20523;-83
2020/12/18 10:32:20;;;;;;;3.53;1.25;;;10.60;86.60;;;;;;5069091;28;20036;-83
2020/12/18 10:34:46;;;;;;;2.95;1.50;;;10.80;87.20;;;;;;5025489;28;20036;-83
2020/12/18 10:37:11;;;;;;;5.88;1.65;;;11.00;86.20;;;;;;5029316;28;20776;-83
2020/12/18 10:39:37;;;;;;;3.08;1.75;;;11.10;85.50;;;;;;5038466;28;20035;-84
2020/12/18 10:42:05;;;;;;;6.63;1.70;;;11.10;85.40;;;;;;5010524;28;20442;-82
2020/12/18 10:44:31;;;;;;;4.65;1.95;;;11.30;84.10;;;;;;5012213;28;20039;-84
2020/12/18 10:46:57;;;;;;;4.95;2.75;;;11.30;85.30;;;;;;5009777;28;20029;-84
2020/12/18 10:49:22;;;;;;;3.35;1.23;;;11.40;85.00;;;;;;5021471;28;20036;-84
2020/12/18 10:51:48;;;;;;;5.25;1.95;;;11.70;84.40;;;;;;5022541;28;20023;-84
2020/12/18 10:54:13;;;;;;;5.85;1.73;;;11.80;83.90;;;;;;5021056;28;20032;-83
2020/12/18 10:56:43;;;;;;;3.63;1.17;;;11.90;83.30;;;;;;5036155;28;20119;-82
2020/12/18 10:59:08;;;;;;;6.55;1.70;;;12.20;84.00;;;;;;5026806;28;20048;-84
2020/12/18 11:01:34;;;;;;;3.03;1.17;;;11.70;85.80;;;;;;5011479;28;20038;-84
2020/12/18 11:03:59;;;;;;;1.80;1.17;;;11.90;85.90;;;;;;5013048;28;20491;-84
2020/12/18 11:06:25;;;;;;;2.83;1.30;;;12.20;85.00;;;;;;5032736;28;20025;-84
2020/12/18 11:08:51;;;;;;;3.03;1.52;;;12.40;83.20;;;;;;5035726;28;20399;-82
2020/12/18 11:11:16;;;;;;;7.07;1.42;;;12.30;82.70;;;;;;5006170;28;20032;-84
2020/12/18 11:13:42;;;;;;;2.72;1.40;;;12.60;81.70;;;;;;5034692;28;20102;-84
2020/12/18 11:16:08;;;;;;;4.30;1.40;;;12.90;80.50;;;;;;5030882;28;20060;-83
2020/12/18 11:18:34;;;;;;;2.83;0.73;;;12.90;80.00;;;;;;5024570;28;20064;-82
2020/12/18 11:21:02;;;;;;;5.22;1.52;;;13.20;78.70;;;;;;5067361;28;20353;-85
2020/12/18 11:23:28;;;;;;;2.33;1.25;;;13.00;79.30;;;;;;5012229;28;20031;-83
2020/12/18 11:25:53;;;;;;;3.58;1.25;;;13.30;81.40;;;;;;5035811;28;20029;-83
2020/12/18 11:28:19;;;;;;;3.25;1.35;;;13.30;79.20;;;;;;5025774;28;20036;-84
2020/12/18 11:30:44;;;;;;;4.47;1.23;;;13.30;79.50;;;;;;5036762;28;20070;-84
2020/12/18 11:33:10;;;;;;;3.60;2.50;;;12.80;80.40;;;;;;5039501;28;20063;-86
2020/12/18 11:35:36;;;;;;;3.95;1.38;;;13.20;78.60;;;;;;5007681;28;20548;-83
2020/12/18 11:38:02;;;;;;;4.15;1.48;;;13.50;79.10;;;;;;5009059;28;20134;-85
2020/12/18 11:40:27;;;;;;;5.80;1.50;;;13.50;80.00;;;;;;5024278;28;20128;-84
2020/12/18 11:42:54;;;;;;;1.25;0.75;;;13.10;80.60;;;;;;5039052;28;20056;-85
2020/12/18 11:45:26;;;;;;;2.10;0.95;;;13.40;78.40;;;;;;5021244;28;20031;-86
2020/12/18 11:47:52;;;;;;;4.50;1.02;;;13.80;76.60;;;;;;5048427;28;20039;-85
2020/12/18 11:50:18;;;;;;;5.30;1.08;;;13.80;78.40;;;;;;5011162;28;20028;-86
2020/12/18 11:52:44;;;;;;;3.03;0.88;;;13.90;75.80;;;;;;5036181;28;20020;-85
2020/12/18 11:55:10;;;;;;;1.17;0.68;;;13.80;77.20;;;;;;5023477;28;20044;-84
2020/12/18 11:57:35;;;;;;;2.85;0.88;;;14.20;74.30;;;;;;5020366;28;20036;-83
2020/12/18 12:00:01;;;;;;;4.85;0.95;;;14.00;75.80;;;;;;5010966;28;20032;-85
2020/12/18 12:02:28;;;;;;;3.75;0.73;;;13.90;74.90;;;;;;5012377;28;20967;-85
2020/12/18 12:04:53;;;;;;;4.03;0.82;;;13.70;75.60;;;;;;5010371;28;20357;-82
2020/12/18 12:07:19;;;;;;;2.20;0.90;;;14.20;74.30;;;;;;5033931;28;20037;-84
2020/12/18 12:09:44;;;;;;;1.92;0.73;;;13.90;74.50;;;;;;5019506;28;20033;-84
2020/12/18 12:12:11;;;;;;;5.35;1.00;;;14.20;72.60;;;;;;5023885;28;21256;-85
2020/12/18 12:14:36;;;;;;;2.65;0.93;;;14.20;72.90;;;;;;5005212;28;20127;-83
2020/12/18 12:17:02;;;;;;;6.47;1.73;;;14.20;72.60;;;;;;5028022;28;20186;-84
2020/12/18 12:19:30;;;;;;;1.13;0.73;;;14.10;72.90;;;;;;5025464;28;20036;-85
2020/12/18 12:21:55;;;;;;;2.90;0.90;;;14.10;74.50;;;;;;5018845;28;20025;-84
2020/12/18 12:24:21;;;;;;;2.28;0.88;;;14.40;74.40;;;;;;5036079;28;20056;-82
2020/12/18 12:26:47;;;;;;;3.58;1.00;;;14.10;74.00;;;;;;5019498;28;20027;-85
2020/12/18 12:29:13;;;;;;;3.10;0.88;;;14.30;74.80;;;;;;5039381;28;20114;-84
2020/12/18 12:31:38;;;;;;;1.83;0.98;;;14.40;72.50;;;;;;5022930;28;20036;-85
2020/12/18 12:34:04;;;;;;;3.50;0.88;;;14.60;74.20;;;;;;5024729;28;20121;-85
2020/12/18 12:36:29;;;;;;;3.63;1.10;;;14.40;73.00;;;;;;5028614;28;20054;-83
2020/12/18 12:38:55;;;;;;;2.80;1.02;;;14.20;74.50;;;;;;5041757;28;20503;-84
2020/12/18 12:41:20;;;;;;;2.42;1.05;;;14.30;74.90;;;;;;5008603;28;20043;-85
2020/12/18 12:43:46;;;;;;;5.68;1.35;;;14.20;76.10;;;;;;5022555;28;20033;-85
2020/12/18 12:46:11;;;;;;;2.75;1.17;;;14.40;74.00;;;;;;5025438;28;20502;-84
2020/12/18 12:48:37;;;;;;;1.85;1.10;;;14.40;75.10;;;;;;5053044;28;20032;-83
2020/12/18 12:51:03;;;;;;;3.20;1.23;;;14.50;75.30;;;;;;5030202;28;20051;-84
2020/12/18 12:53:28;;;;;;;2.58;0.90;;;14.60;74.80;;;;;;5012933;28;20113;-85
2020/12/18 12:55:55;;;;;;;2.60;1.17;;;14.40;74.50;;;;;;4328073;28;10000698;-84